createdAt,value
2019-03-20T00:01:01.785Z,957.65
2019-03-20T00:03:28.095Z,957.67
2019-03-20T00:05:54.395Z,957.63
2019-03-20T00:08:20.724Z,957.69
2019-03-20T00:10:47.028Z,957.67
2019-03-20T00:13:13.334Z,957.63
2019-03-20T00:15:39.639Z,957.67
2019-03-20T00:18:05.948Z,957.69
2019-03-20T00:20:32.267Z,957.72
2019-03-20T00:22:58.561Z,957.74
2019-03-20T00:25:24.870Z,957.73
2019-03-20T00:27:51.174Z,957.75
2019-03-20T00:30:17.478Z,957.76
2019-03-20T00:32:43.788Z,957.81
2019-03-20T00:35:10.101Z,957.82
2019-03-20T00:37:36.414Z,957.84
2019-03-20T00:40:02.710Z,957.91
2019-03-20T00:42:29.038Z,957.91
2019-03-20T00:44:55.344Z,957.89
2019-03-20T00:47:21.646Z,957.90
2019-03-20T00:49:47.955Z,957.89
2019-03-20T00:52:14.258Z,957.88
2019-03-20T00:54:40.568Z,957.94
2019-03-20T00:57:06.879Z,957.88
2019-03-20T00:59:33.184Z,957.92
2019-03-20T01:01:59.530Z,957.90
2019-03-20T01:04:25.860Z,957.91
2019-03-20T01:06:52.163Z,957.86
2019-03-20T01:09:18.465Z,957.81
2019-03-20T01:11:44.864Z,957.76
2019-03-20T01:14:11.175Z,957.77
2019-03-20T01:16:37.477Z,957.78
2019-03-20T01:19:03.784Z,957.81
2019-03-20T01:21:30.092Z,957.84
2019-03-20T01:23:56.396Z,957.87
2019-03-20T01:26:22.732Z,957.85
2019-03-20T01:28:49.102Z,957.89
2019-03-20T01:31:15.387Z,957.88
2019-03-20T01:33:41.695Z,957.80
2019-03-20T01:36:07.998Z,957.84
2019-03-20T01:38:34.310Z,957.91
2019-03-20T01:41:00.615Z,957.86
2019-03-20T01:43:26.919Z,957.88
2019-03-20T01:45:53.224Z,957.92
2019-03-20T01:48:19.526Z,957.92
2019-03-20T01:50:45.832Z,957.79
2019-03-20T01:53:12.136Z,958.02
2019-03-20T01:55:38.438Z,958.01
2019-03-20T01:58:04.749Z,958.01
2019-03-20T02:00:31.050Z,958.01
2019-03-20T02:02:57.356Z,958.09
2019-03-20T02:05:34.788Z,958.12
2019-03-20T02:07:49.966Z,958.12
2019-03-20T02:10:16.274Z,958.07
2019-03-20T02:12:42.575Z,958.03
2019-03-20T02:15:08.891Z,958.10
2019-03-20T02:17:35.198Z,958.07
2019-03-20T02:20:01.505Z,958.05
2019-03-20T02:22:27.818Z,958.13
2019-03-20T02:24:54.151Z,958.10
2019-03-20T02:27:20.455Z,958.12
2019-03-20T02:29:46.762Z,958.09
2019-03-20T02:32:13.069Z,958.08
2019-03-20T02:34:39.375Z,958.12
2019-03-20T02:37:05.684Z,958.06
2019-03-20T02:39:31.997Z,958.11
2019-03-20T02:41:58.324Z,958.14
2019-03-20T02:44:24.640Z,958.10
2019-03-20T02:46:50.935Z,958.17
2019-03-20T02:49:17.247Z,958.18
2019-03-20T02:51:43.549Z,958.15
2019-03-20T02:54:09.854Z,958.22
2019-03-20T02:56:36.155Z,958.28
2019-03-20T02:59:02.460Z,958.31
2019-03-20T03:01:28.762Z,958.33
2019-03-20T03:03:55.066Z,958.31
2019-03-20T03:06:21.573Z,958.24
2019-03-20T03:08:47.880Z,958.27
2019-03-20T03:11:14.196Z,958.32
2019-03-20T03:13:40.522Z,958.24
2019-03-20T03:16:06.829Z,958.36
2019-03-20T03:18:33.144Z,958.38
2019-03-20T03:20:59.456Z,958.38
2019-03-20T03:23:25.783Z,958.37
2019-03-20T03:25:52.076Z,958.41
2019-03-20T03:28:18.385Z,958.44
2019-03-20T03:30:44.691Z,958.40
2019-03-20T03:33:11.010Z,958.35
2019-03-20T03:35:37.309Z,958.45
2019-03-20T03:38:03.619Z,958.51
2019-03-20T03:40:29.931Z,958.52
2019-03-20T03:42:56.237Z,958.54
2019-03-20T03:45:22.537Z,958.56
2019-03-20T03:47:48.924Z,958.56
2019-03-20T03:50:15.284Z,958.65
2019-03-20T03:52:41.537Z,958.72
2019-03-20T03:55:07.857Z,958.75
2019-03-20T03:57:34.165Z,958.79
2019-03-20T04:00:00.514Z,958.82
2019-03-20T04:02:26.784Z,958.85
2019-03-20T04:04:53.175Z,958.82
2019-03-20T04:07:19.407Z,958.83
2019-03-20T04:09:45.712Z,958.77
2019-03-20T04:12:12.029Z,958.82
2019-03-20T04:14:38.340Z,958.80
2019-03-20T04:17:04.641Z,958.81
2019-03-20T04:19:30.942Z,958.87
2019-03-20T04:21:57.258Z,958.91
2019-03-20T04:24:23.556Z,958.88
2019-03-20T04:26:49.860Z,958.89
2019-03-20T04:29:16.165Z,958.93
2019-03-20T04:31:42.475Z,959.01
2019-03-20T04:34:08.774Z,959.01
2019-03-20T04:36:46.770Z,959.03
2019-03-20T04:39:01.395Z,959.04
2019-03-20T04:41:27.709Z,959.06
2019-03-20T04:43:54.016Z,959.11
2019-03-20T04:46:20.331Z,959.17
2019-03-20T04:48:46.658Z,959.10
2019-03-20T04:51:12.981Z,959.11
2019-03-20T04:53:39.282Z,959.24
2019-03-20T04:56:05.591Z,959.31
2019-03-20T04:58:31.903Z,959.37
2019-03-20T05:00:58.206Z,959.30
2019-03-20T05:03:24.512Z,959.41
2019-03-20T05:05:50.827Z,959.29
2019-03-20T05:08:17.128Z,959.50
2019-03-20T05:10:43.431Z,959.59
2019-03-20T05:13:09.743Z,959.58
2019-03-20T05:15:36.049Z,959.60
2019-03-20T05:18:02.382Z,959.63
2019-03-20T05:20:28.688Z,959.69
2019-03-20T05:22:54.997Z,959.80
2019-03-20T05:25:21.321Z,959.83
2019-03-20T05:27:47.625Z,959.85
2019-03-20T05:30:13.936Z,959.94
2019-03-20T05:32:40.301Z,959.97
2019-03-20T05:35:06.604Z,960.02
2019-03-20T05:37:32.934Z,960.02
2019-03-20T05:39:59.242Z,960.01
2019-03-20T05:42:25.563Z,960.05
2019-03-20T05:44:51.877Z,959.88
2019-03-20T05:47:18.213Z,960.11
2019-03-20T05:49:44.519Z,960.16
2019-03-20T05:52:10.822Z,960.12
2019-03-20T05:54:37.138Z,960.12
2019-03-20T05:57:03.453Z,960.20
2019-03-20T05:59:29.773Z,960.21
2019-03-20T06:01:56.081Z,960.24
2019-03-20T06:04:22.389Z,960.28
2019-03-20T06:06:48.714Z,960.28
2019-03-20T06:09:15.064Z,960.30
2019-03-20T06:11:41.359Z,960.35
2019-03-20T06:14:07.673Z,960.34
2019-03-20T06:16:33.981Z,960.37
2019-03-20T06:19:00.287Z,960.40
2019-03-20T06:21:26.592Z,960.44
2019-03-20T06:23:52.901Z,960.36
2019-03-20T06:26:19.213Z,960.43
2019-03-20T06:28:45.561Z,960.50
2019-03-20T06:31:11.836Z,960.49
2019-03-20T06:33:38.165Z,960.56
2019-03-20T06:36:04.473Z,960.57
2019-03-20T06:38:30.807Z,960.59
2019-03-20T06:40:57.234Z,960.55
2019-03-20T06:43:23.546Z,960.60
2019-03-20T06:45:49.905Z,960.61
2019-03-20T06:48:16.213Z,960.60
2019-03-20T06:50:42.526Z,960.59
2019-03-20T06:53:08.876Z,960.56
2019-03-20T06:55:35.241Z,960.59
2019-03-20T06:58:01.545Z,960.62
2019-03-20T07:00:27.877Z,960.67
2019-03-20T07:02:54.200Z,960.61
2019-03-20T07:05:20.509Z,960.60
2019-03-20T07:07:46.846Z,960.61
2019-03-20T07:10:13.161Z,960.67
2019-03-20T07:12:39.507Z,960.64
2019-03-20T07:15:05.812Z,960.74
2019-03-20T07:17:32.201Z,960.68
2019-03-20T07:19:58.477Z,960.70
2019-03-20T07:22:24.794Z,960.67
2019-03-20T07:24:51.118Z,960.73
2019-03-20T07:27:17.427Z,960.63
2019-03-20T07:29:43.732Z,960.67
2019-03-20T07:32:10.128Z,960.64
2019-03-20T07:34:36.507Z,960.65
2019-03-20T07:37:02.812Z,960.62
2019-03-20T07:39:29.121Z,960.75
2019-03-20T07:41:55.430Z,960.61
2019-03-20T07:44:21.768Z,960.69
2019-03-20T07:46:48.091Z,960.72
2019-03-20T07:49:14.411Z,960.69
2019-03-20T07:51:40.715Z,960.69
2019-03-20T07:54:09.238Z,960.73
2019-03-20T07:56:35.591Z,960.68
2019-03-20T07:59:01.942Z,960.68
2019-03-20T08:01:28.250Z,960.65
2019-03-20T08:03:54.540Z,960.66
2019-03-20T08:06:20.849Z,960.65
2019-03-20T08:08:47.236Z,960.72
2019-03-20T08:11:13.554Z,960.68
2019-03-20T08:13:40.044Z,960.70
2019-03-20T08:16:06.347Z,960.68
2019-03-20T08:18:32.657Z,960.63
2019-03-20T08:20:59.001Z,960.64
2019-03-20T08:23:25.311Z,960.60
2019-03-20T08:25:51.663Z,960.64
2019-03-20T08:28:17.974Z,960.58
2019-03-20T08:30:44.276Z,960.60
2019-03-20T08:33:10.585Z,960.63
2019-03-20T08:35:36.918Z,960.60
2019-03-20T08:38:03.238Z,960.63
2019-03-20T08:40:29.628Z,960.56
2019-03-20T08:43:01.656Z,960.52
2019-03-20T08:45:28.052Z,960.54
2019-03-20T08:50:38.784Z,960.50
2019-03-20T08:53:05.079Z,960.50
2019-03-20T08:55:31.388Z,960.56
2019-03-20T08:57:57.770Z,960.50
2019-03-20T09:00:24.069Z,960.52
2019-03-20T09:02:50.374Z,960.49
2019-03-20T09:05:16.681Z,960.47
2019-03-20T09:07:47.259Z,960.45
2019-03-20T09:10:09.300Z,960.46
2019-03-20T09:12:35.655Z,960.46
2019-03-20T09:15:02.007Z,960.43
2019-03-20T09:17:28.331Z,960.45
2019-03-20T09:19:54.634Z,960.46
2019-03-20T09:22:20.965Z,960.48
2019-03-20T09:24:47.271Z,960.45
2019-03-20T09:27:13.613Z,960.45
2019-03-20T09:29:41.213Z,960.43
2019-03-20T09:32:06.240Z,960.36
2019-03-20T09:34:32.557Z,960.35
2019-03-20T09:36:58.861Z,960.36
2019-03-20T09:39:25.176Z,960.31
2019-03-20T09:41:51.494Z,960.33
2019-03-20T09:44:17.806Z,960.33
2019-03-20T09:46:44.114Z,960.31
2019-03-20T09:49:10.484Z,960.31
2019-03-20T09:51:36.799Z,960.33
2019-03-20T09:54:03.106Z,960.32
2019-03-20T09:56:29.418Z,960.28
2019-03-20T09:58:55.723Z,960.25
2019-03-20T10:01:22.036Z,960.23
2019-03-20T10:03:48.375Z,960.19
2019-03-20T10:06:14.772Z,960.22
2019-03-20T10:08:41.097Z,960.16
2019-03-20T10:11:07.454Z,960.10
2019-03-20T10:13:33.795Z,960.12
2019-03-20T10:16:00.091Z,960.18
2019-03-20T10:18:26.447Z,960.20
2019-03-20T10:20:52.795Z,960.17
2019-03-20T10:23:19.102Z,960.12
2019-03-20T10:25:46.349Z,960.18
2019-03-20T10:28:12.668Z,960.10
2019-03-20T10:30:38.972Z,960.08
2019-03-20T10:33:05.281Z,960.02
2019-03-20T10:35:31.597Z,959.95
2019-03-20T10:37:57.909Z,959.96
2019-03-20T10:40:24.224Z,959.91
2019-03-20T10:42:50.536Z,959.90
2019-03-20T10:45:16.845Z,959.92
2019-03-20T10:47:43.167Z,959.87
2019-03-20T10:50:09.469Z,959.88
2019-03-20T10:52:35.773Z,959.74
2019-03-20T10:55:02.086Z,959.76
2019-03-20T10:57:28.391Z,959.74
2019-03-20T10:59:54.805Z,959.73
2019-03-20T11:02:21.084Z,959.80
2019-03-20T11:04:47.384Z,959.76
2019-03-20T11:07:13.737Z,959.78
2019-03-20T11:09:40.065Z,959.76
2019-03-20T11:12:06.371Z,959.72
2019-03-20T11:14:32.688Z,959.66
2019-03-20T11:16:58.996Z,959.64
2019-03-20T11:19:25.305Z,959.62
2019-03-20T11:21:51.619Z,959.66
2019-03-20T11:24:17.923Z,959.58
2019-03-20T11:26:44.233Z,959.63
2019-03-20T11:29:10.540Z,959.58
2019-03-20T11:31:36.845Z,959.64
2019-03-20T11:34:03.208Z,959.60
2019-03-20T11:36:29.508Z,959.57
2019-03-20T11:38:55.829Z,959.53
2019-03-20T11:41:22.135Z,959.54
2019-03-20T11:43:48.465Z,959.52
2019-03-20T11:46:14.783Z,959.50
2019-03-20T11:48:41.093Z,959.44
2019-03-20T11:51:07.416Z,959.44
2019-03-20T11:53:33.728Z,959.50
2019-03-20T11:56:00.621Z,959.51
2019-03-20T11:58:26.923Z,959.49
2019-03-20T12:00:53.233Z,959.42
2019-03-20T12:03:19.538Z,959.48
2019-03-20T12:05:45.868Z,959.46
2019-03-20T12:08:12.310Z,959.49
2019-03-20T12:10:38.617Z,959.47
2019-03-20T12:13:04.925Z,959.47
2019-03-20T12:15:31.240Z,959.54
2019-03-20T12:17:57.535Z,959.41
2019-03-20T12:20:23.836Z,959.47
2019-03-20T12:22:50.211Z,959.43
2019-03-20T12:25:16.530Z,959.44
2019-03-20T12:27:42.841Z,959.45
2019-03-20T12:30:09.159Z,959.44
2019-03-20T12:32:35.483Z,959.41
2019-03-20T12:35:01.791Z,959.39
2019-03-20T12:37:28.109Z,959.42
2019-03-20T12:39:54.408Z,959.41
2019-03-20T12:42:20.720Z,959.37
2019-03-20T12:44:47.061Z,959.37
2019-03-20T12:47:13.376Z,959.34
2019-03-20T12:49:39.698Z,959.33
2019-03-20T12:52:06.009Z,959.36
2019-03-20T12:54:32.368Z,959.35
2019-03-20T12:56:58.675Z,959.39
2019-03-20T12:59:24.984Z,959.39
2019-03-20T13:01:51.288Z,959.42
2019-03-20T13:04:17.598Z,959.46
2019-03-20T13:06:43.899Z,959.39
2019-03-20T13:09:10.225Z,959.35
2019-03-20T13:11:36.533Z,959.36
2019-03-20T13:14:02.880Z,959.33
2019-03-20T13:16:29.179Z,959.32
2019-03-20T13:18:55.493Z,959.44
2019-03-20T13:21:21.803Z,959.33
2019-03-20T13:23:48.109Z,959.33
2019-03-20T13:26:14.420Z,959.46
2019-03-20T13:28:40.753Z,959.43
2019-03-20T13:31:07.060Z,959.48
2019-03-20T13:33:33.372Z,959.48
2019-03-20T13:35:59.707Z,959.50
2019-03-20T13:38:26.045Z,959.53
2019-03-20T13:40:52.394Z,959.50
2019-03-20T13:43:18.700Z,959.50
2019-03-20T13:45:45.010Z,959.52
2019-03-20T13:48:11.321Z,959.54
2019-03-20T13:50:37.644Z,959.54
2019-03-20T13:53:03.987Z,959.49
2019-03-20T13:55:30.282Z,959.41
2019-03-20T13:57:56.584Z,959.47
2019-03-20T14:00:22.896Z,959.45
2019-03-20T14:02:49.205Z,959.43
2019-03-20T14:05:15.525Z,959.55
2019-03-20T14:07:41.867Z,959.56
2019-03-20T14:10:08.136Z,959.55
2019-03-20T14:12:34.461Z,959.48
2019-03-20T14:15:00.771Z,959.56
2019-03-20T14:17:27.092Z,959.53
2019-03-20T14:19:53.420Z,959.58
2019-03-20T14:22:19.727Z,959.52
2019-03-20T14:24:46.038Z,959.52
2019-03-20T14:27:12.345Z,959.54
2019-03-20T14:29:39.631Z,959.47
2019-03-20T14:32:04.964Z,959.50
2019-03-20T14:34:31.273Z,959.60
2019-03-20T14:36:57.589Z,959.62
2019-03-20T14:39:23.898Z,959.59
2019-03-20T14:41:50.209Z,959.75
2019-03-20T14:44:16.515Z,959.65
2019-03-20T14:46:42.843Z,959.77
2019-03-20T14:49:09.153Z,959.77
2019-03-20T14:51:35.466Z,959.81
2019-03-20T14:54:01.789Z,959.85
2019-03-20T14:56:28.532Z,959.79
2019-03-20T14:58:54.805Z,959.84
2019-03-20T15:01:21.118Z,959.88
2019-03-20T15:03:48.729Z,959.92
2019-03-20T15:06:13.740Z,959.90
2019-03-20T15:08:40.086Z,959.92
2019-03-20T15:11:06.430Z,959.93
2019-03-20T15:13:32.740Z,959.98
2019-03-20T15:15:59.051Z,959.96
2019-03-20T15:18:25.358Z,959.90
2019-03-20T15:20:51.673Z,960.04
2019-03-20T15:23:17.982Z,960.04
2019-03-20T15:25:44.300Z,960.00
2019-03-20T15:28:10.612Z,960.09
2019-03-20T15:30:36.946Z,960.22
2019-03-20T15:33:03.234Z,960.22
2019-03-20T15:35:29.617Z,960.30
2019-03-20T15:37:55.928Z,960.32
2019-03-20T15:40:22.239Z,960.45
2019-03-20T15:42:48.570Z,960.44
2019-03-20T15:45:14.877Z,960.47
2019-03-20T15:47:41.196Z,960.49
2019-03-20T15:50:07.535Z,960.58
2019-03-20T15:52:33.880Z,960.55
2019-03-20T15:55:00.334Z,960.67
2019-03-20T15:57:26.500Z,960.53
2019-03-20T15:59:52.806Z,960.73
2019-03-20T16:02:19.142Z,960.67
2019-03-20T16:04:45.450Z,960.79
2019-03-20T16:07:11.755Z,960.77
2019-03-20T16:09:38.068Z,960.85
2019-03-20T16:12:04.404Z,960.85
2019-03-20T16:14:30.717Z,960.85
2019-03-20T16:16:57.026Z,960.91
2019-03-20T16:19:23.385Z,960.99
2019-03-20T16:21:49.695Z,960.96
2019-03-20T16:24:16.020Z,961.05
2019-03-20T16:26:42.328Z,961.10
2019-03-20T16:29:08.636Z,961.19
2019-03-20T16:31:34.958Z,961.20
2019-03-20T16:34:01.265Z,961.27
2019-03-20T16:36:27.580Z,961.33
2019-03-20T16:38:53.889Z,961.32
2019-03-20T16:41:20.192Z,961.37
2019-03-20T16:43:46.509Z,961.46
2019-03-20T16:46:12.840Z,961.41
2019-03-20T16:48:39.180Z,961.49
2019-03-20T16:51:05.489Z,961.50
2019-03-20T16:53:31.868Z,961.55
2019-03-20T16:55:58.182Z,961.58
2019-03-20T16:58:24.521Z,961.62
2019-03-20T17:00:50.826Z,961.60
2019-03-20T17:03:17.174Z,961.64
2019-03-20T17:05:43.477Z,961.69
2019-03-20T17:08:09.785Z,961.72
2019-03-20T17:10:36.098Z,961.83
2019-03-20T17:13:02.412Z,961.96
2019-03-20T17:15:28.724Z,961.94
2019-03-20T17:17:55.034Z,961.98
2019-03-20T17:20:21.367Z,962.07
2019-03-20T17:22:47.675Z,962.13
2019-03-20T17:25:14.006Z,962.26
2019-03-20T17:27:40.310Z,962.25
2019-03-20T17:30:06.624Z,962.32
2019-03-20T17:32:32.932Z,962.35
2019-03-20T17:34:59.260Z,962.38
2019-03-20T17:37:25.594Z,962.40
2019-03-20T17:39:51.903Z,962.41
2019-03-20T17:42:18.214Z,962.50
2019-03-20T17:44:44.515Z,962.51
2019-03-20T17:47:10.827Z,962.56
2019-03-20T17:49:37.138Z,962.55
2019-03-20T17:52:03.476Z,962.62
2019-03-20T17:54:29.780Z,962.64
2019-03-20T17:56:56.090Z,962.66
2019-03-20T17:59:22.402Z,962.65
2019-03-20T18:01:48.710Z,962.69
2019-03-20T18:04:15.066Z,962.80
2019-03-20T18:06:41.408Z,962.82
2019-03-20T18:09:07.711Z,962.85
2019-03-20T18:11:34.036Z,962.93
2019-03-20T18:14:00.345Z,962.94
2019-03-20T18:16:26.669Z,962.97
2019-03-20T18:18:52.995Z,963.04
2019-03-20T18:21:19.344Z,963.06
2019-03-20T18:23:45.680Z,963.13
2019-03-20T18:26:11.993Z,963.16
2019-03-20T18:28:38.296Z,963.15
2019-03-20T18:31:04.606Z,963.17
2019-03-20T18:33:30.911Z,963.21
2019-03-20T18:35:57.222Z,963.19
2019-03-20T18:38:23.525Z,963.25
2019-03-20T18:40:49.856Z,963.26
2019-03-20T18:43:16.170Z,963.31
2019-03-20T18:45:42.477Z,963.25
2019-03-20T18:48:08.781Z,963.28
2019-03-20T18:50:35.085Z,963.39
2019-03-20T18:53:01.403Z,963.36
2019-03-20T18:55:27.710Z,963.34
2019-03-20T18:57:54.091Z,963.41
2019-03-20T19:00:20.402Z,963.32
2019-03-20T19:02:46.734Z,963.39
2019-03-20T19:05:13.100Z,963.38
2019-03-20T19:07:39.407Z,963.41
2019-03-20T19:10:05.713Z,963.37
2019-03-20T19:12:32.023Z,963.45
2019-03-20T19:14:58.346Z,963.46
2019-03-20T19:17:35.829Z,963.46
2019-03-20T19:22:47.573Z,963.51
2019-03-20T19:25:13.876Z,963.50
2019-03-20T19:27:40.726Z,963.56
2019-03-20T19:30:07.036Z,963.60
2019-03-20T19:32:33.345Z,963.66
2019-03-20T19:35:01.457Z,963.62
2019-03-20T19:37:27.757Z,963.69
2019-03-20T19:39:54.130Z,963.70
2019-03-20T19:42:20.436Z,963.73
2019-03-20T19:44:46.750Z,963.73
2019-03-20T19:47:13.062Z,963.81
2019-03-20T19:49:39.438Z,963.80
2019-03-20T19:52:05.720Z,963.74
2019-03-20T19:54:35.375Z,963.78
2019-03-20T19:57:01.631Z,963.77
2019-03-20T19:59:27.987Z,963.81
2019-03-20T20:01:54.292Z,963.84
2019-03-20T20:04:20.737Z,963.84
2019-03-20T20:06:47.040Z,963.75
2019-03-20T20:09:13.539Z,963.77
2019-03-20T20:11:39.767Z,963.78
2019-03-20T20:14:06.076Z,963.75
2019-03-20T20:16:32.462Z,963.79
2019-03-20T20:18:58.813Z,963.79
2019-03-20T20:21:25.148Z,963.82
2019-03-20T20:23:51.420Z,963.85
2019-03-20T20:26:17.733Z,963.82
2019-03-20T20:28:44.053Z,963.88
2019-03-20T20:31:10.364Z,963.93
2019-03-20T20:33:38.176Z,963.93
2019-03-20T20:36:03.005Z,963.95
2019-03-20T20:38:29.330Z,964.01
2019-03-20T20:40:55.642Z,963.97
2019-03-20T20:43:21.964Z,963.94
2019-03-20T20:45:48.272Z,963.97
2019-03-20T20:48:14.591Z,963.95
2019-03-20T20:50:40.897Z,963.98
2019-03-20T20:53:07.251Z,963.98
2019-03-20T20:55:33.517Z,963.97
2019-03-20T20:57:59.867Z,964.02
2019-03-20T21:00:26.179Z,964.01
2019-03-20T21:02:52.508Z,964.00
2019-03-20T21:05:18.823Z,964.02
2019-03-20T21:07:45.130Z,964.07
2019-03-20T21:10:11.442Z,964.11
2019-03-20T21:12:37.819Z,964.15
2019-03-20T21:15:04.195Z,964.17
2019-03-20T21:17:30.477Z,964.11
2019-03-20T21:19:56.795Z,964.15
2019-03-20T21:22:23.107Z,964.16
2019-03-20T21:24:49.414Z,964.20
2019-03-20T21:27:15.719Z,964.14
2019-03-20T21:29:42.027Z,964.24
2019-03-20T21:32:08.344Z,964.18
2019-03-20T21:34:34.646Z,964.19
2019-03-20T21:37:00.957Z,964.18
2019-03-20T21:39:27.264Z,964.22
2019-03-20T21:41:53.575Z,964.17
2019-03-20T21:44:19.885Z,964.19
2019-03-20T21:46:46.196Z,964.23
2019-03-20T21:49:12.500Z,964.23
2019-03-20T21:51:38.804Z,964.31
2019-03-20T21:54:05.118Z,964.33
2019-03-20T21:56:31.420Z,964.35
2019-03-20T21:58:57.744Z,964.30
2019-03-20T22:01:24.049Z,964.30
2019-03-20T22:03:50.357Z,964.31
2019-03-20T22:06:16.669Z,964.33
2019-03-20T22:08:43.005Z,964.30
2019-03-20T22:11:09.313Z,964.30
2019-03-20T22:13:35.622Z,964.35
2019-03-20T22:16:01.950Z,964.33
2019-03-20T22:18:28.260Z,964.28
2019-03-20T22:20:54.587Z,964.29
2019-03-20T22:23:20.894Z,964.36
2019-03-20T22:25:47.247Z,964.42
2019-03-20T22:28:13.523Z,964.41
2019-03-20T22:30:39.840Z,964.39
2019-03-20T22:33:06.145Z,964.40
2019-03-20T22:35:32.475Z,964.40
2019-03-20T22:37:58.788Z,964.38
2019-03-20T22:40:25.095Z,964.48
2019-03-20T22:42:51.414Z,964.51
2019-03-20T22:45:17.726Z,964.47
2019-03-20T22:47:44.043Z,964.50
2019-03-20T22:50:10.358Z,964.51
2019-03-20T22:52:36.673Z,964.59
2019-03-20T22:55:03.091Z,964.58
2019-03-20T22:57:29.398Z,964.57
2019-03-20T22:59:55.750Z,964.62
2019-03-20T23:02:22.059Z,964.61
2019-03-20T23:04:48.378Z,964.63
2019-03-20T23:07:14.687Z,964.65
2019-03-20T23:09:41.001Z,964.63
2019-03-20T23:12:07.309Z,964.64
2019-03-20T23:14:33.626Z,964.64
2019-03-20T23:16:59.952Z,964.66
2019-03-20T23:19:26.313Z,964.63
2019-03-20T23:21:52.570Z,964.60
2019-03-20T23:24:18.886Z,964.59
2019-03-20T23:26:45.190Z,964.70
2019-03-20T23:29:11.521Z,964.68
2019-03-20T23:31:37.852Z,964.65
2019-03-20T23:34:04.165Z,964.69
2019-03-20T23:36:30.480Z,964.69
2019-03-20T23:38:56.843Z,964.67
2019-03-20T23:41:23.165Z,964.69
2019-03-20T23:43:53.231Z,964.68
2019-03-20T23:46:15.798Z,964.69
2019-03-20T23:48:42.109Z,964.74
2019-03-20T23:51:08.417Z,964.79
2019-03-20T23:53:34.729Z,964.71
2019-03-20T23:56:01.045Z,964.73
2019-03-20T23:58:27.356Z,964.73
